Impacts TAF Board
For situational awareness. Not to be used for flight planning purposes.
IDs:

KFLL - Ft Lauderdale-Hollyw, FL, US

Issued at 2058 UTC 18 Nov 2018
Updated at 2309 UTC 18 Nov 2018
Potential Impact None Slight Moderate High
Time<<19/12Z 19/13Z 19/14Z 19/15Z 19/16Z 19/17Z 19/18Z 19/19Z 19/20Z 19/21Z 19/22Z 19/23Z 20/00Z>>
Type PRVL PRVL PRVL PRVL PRVL PRVL PRVL PRVL PRVL PRVL PRVL PRVL
VIS >6 >6 >6 >6 >6 >6 >6 >6 >6 >6 >6 >6
CIG 70 70 70 70 70 60 60 60 60 60 60 60
Cover BKN BKN BKN BKN BKN BKN BKN BKN BKN BKN BKN BKN
FltCat VFR VFR VFR VFR VFR VFR VFR VFR VFR VFR VFR VFR
WX -- -- -- -- -- -- -- -- -- -- -- --
WDir 70 70 70 70 70 90 90 90 90 90 90 90
WSpd 5 5 5 5 5 8 8 8 8 8 8 8
WGst -- -- -- -- -- -- -- -- -- -- -- --
Raw TAF
KFLL 182058Z 1821/1924 08008KT P6SM SCT050 BKN070
  FM190300 07006KT P6SM FEW028 SCT035 BKN070
  FM190600 07005KT P6SM SCT050 BKN070
  FM191700 09008KT P6SM SCT030 BKN060


METAR Board
Radar Display
Forecast Discussion
For situational awareness. Not to be used for flight planning purposes.